Time;durP1;ratioP1;P1;durP2;ratioP2;P2;SDS_P1;SDS_P2;PMS_P1;PMS_P2;Temp;Humidity;BMP_temperature;BMP_pressure;BME280_temperature;BME280_humidity;BME280_pressure;Samples;Min_cycle;Max_cycle;Signal;HPM_P1;HPM_P2
2023/09/22 00:00:32;;;;;;;8.52;7.72;;;;;;;;;;5068623;28;20124;-62
2023/09/22 00:02:58;;;;;;;8.13;7.13;;;;;;;;;;5051237;28;20108;-61
2023/09/22 00:05:23;;;;;;;9.07;7.80;;;;;;;;;;5055720;28;20455;-60
2023/09/22 00:07:49;;;;;;;8.50;7.70;;;;;;;;;;5074288;28;20488;-60
2023/09/22 00:10:14;;;;;;;9.38;8.25;;;;;;;;;;5072101;28;20016;-61
2023/09/22 00:12:39;;;;;;;10.05;9.07;;;;;;;;;;5056934;28;20487;-61
2023/09/22 00:15:05;;;;;;;10.53;7.83;;;;;;;;;;5038865;28;20018;-59
2023/09/22 00:17:35;;;;;;;9.60;8.70;;;;;;;;;;5053641;28;20489;-61
2023/09/22 00:20:00;;;;;;;9.70;8.60;;;;;;;;;;5054348;28;20037;-60
2023/09/22 00:22:25;;;;;;;11.63;9.32;;;;;;;;;;5066957;28;20059;-60
2023/09/22 00:24:51;;;;;;;10.05;9.05;;;;;;;;;;5073091;28;20032;-60
2023/09/22 00:27:16;;;;;;;10.82;9.70;;;;;;;;;;5072148;28;20547;-61
2023/09/22 00:29:42;;;;;;;15.93;11.27;;;;;;;;;;5073594;28;20023;-60
2023/09/22 00:32:07;;;;;;;19.05;10.98;;;;;;;;;;5071475;28;20150;-60
2023/09/22 00:34:33;;;;;;;11.75;10.55;;;;;;;;;;5073235;28;20131;-60
2023/09/22 00:36:58;;;;;;;12.68;11.35;;;;;;;;;;5060438;28;20069;-60
2023/09/22 00:39:23;;;;;;;15.55;13.95;;;;;;;;;;5051971;28;20017;-60
2023/09/22 00:41:48;;;;;;;15.05;11.40;;;;;;;;;;5066269;28;20037;-60
2023/09/22 00:44:14;;;;;;;16.35;13.65;;;;;;;;;;5073103;28;20016;-60
2023/09/22 00:46:39;;;;;;;16.17;13.02;;;;;;;;;;5071432;28;20036;-60
2023/09/22 00:49:05;;;;;;;18.15;12.88;;;;;;;;;;5073020;28;20125;-59
2023/09/22 00:51:30;;;;;;;17.40;14.30;;;;;;;;;;5058489;28;20146;-60
2023/09/22 00:53:55;;;;;;;17.98;14.07;;;;;;;;;;5072681;28;20096;-60
2023/09/22 00:56:22;;;;;;;16.75;13.75;;;;;;;;;;5071640;28;20105;-60
2023/09/22 00:58:49;;;;;;;16.80;14.80;;;;;;;;;;5071087;28;20025;-61
2023/09/22 01:01:14;;;;;;;18.15;16.00;;;;;;;;;;5061038;28;20040;-61
2023/09/22 01:03:39;;;;;;;17.88;14.85;;;;;;;;;;5072604;28;20407;-62
2023/09/22 01:06:06;;;;;;;23.00;15.50;;;;;;;;;;5071101;28;20067;-61
2023/09/22 01:08:31;;;;;;;15.98;14.38;;;;;;;;;;5071846;28;20116;-64
2023/09/22 01:10:57;;;;;;;17.53;15.80;;;;;;;;;;5071141;28;20119;-61
2023/09/22 01:13:22;;;;;;;20.98;14.55;;;;;;;;;;5073084;28;20027;-61
2023/09/22 01:15:48;;;;;;;17.30;15.10;;;;;;;;;;5069835;28;20032;-61
2023/09/22 01:18:13;;;;;;;16.60;14.85;;;;;;;;;;5073297;28;20031;-61
2023/09/22 01:20:42;;;;;;;19.30;14.52;;;;;;;;;;5070605;28;20499;-61
2023/09/22 01:23:07;;;;;;;17.38;14.73;;;;;;;;;;5071492;28;20023;-61
2023/09/22 01:25:33;;;;;;;18.80;16.85;;;;;;;;;;5070856;28;20041;-61
2023/09/22 01:27:58;;;;;;;22.20;17.03;;;;;;;;;;5071074;28;20104;-61
2023/09/22 01:30:23;;;;;;;15.95;14.25;;;;;;;;;;5071177;28;20090;-61
2023/09/22 01:32:48;;;;;;;22.60;17.45;;;;;;;;;;5055727;28;20431;-61
2023/09/22 01:35:13;;;;;;;18.45;15.68;;;;;;;;;;5052713;28;20033;-61
2023/09/22 01:37:50;;;;;;;21.38;17.75;;;;;;;;;;5072381;28;20013;-61
2023/09/22 01:40:16;;;;;;;18.63;14.60;;;;;;;;;;5070746;28;20013;-61
2023/09/22 01:42:42;;;;;;;19.55;17.05;;;;;;;;;;5071820;28;20028;-61
2023/09/22 01:45:07;;;;;;;18.25;15.27;;;;;;;;;;5069739;28;20032;-60
2023/09/22 01:47:33;;;;;;;19.40;17.33;;;;;;;;;;5072049;28;20016;-61
2023/09/22 01:49:58;;;;;;;19.05;17.05;;;;;;;;;;5072466;28;20104;-61
2023/09/22 01:52:24;;;;;;;23.08;18.52;;;;;;;;;;5070349;28;20400;-61
2023/09/22 01:54:49;;;;;;;25.02;20.95;;;;;;;;;;5071195;28;20063;-60
2023/09/22 01:57:16;;;;;;;21.73;19.40;;;;;;;;;;5070689;28;20041;-62
2023/09/22 01:59:41;;;;;;;21.08;18.33;;;;;;;;;;5072145;28;20025;-62
2023/09/22 02:02:06;;;;;;;21.98;17.30;;;;;;;;;;5070055;28;20543;-62
2023/09/22 02:04:31;;;;;;;24.52;20.00;;;;;;;;;;5072067;28;20044;-61
2023/09/22 02:06:57;;;;;;;25.85;20.85;;;;;;;;;;5056730;28;20048;-61
2023/09/22 02:09:22;;;;;;;28.88;20.83;;;;;;;;;;5059160;28;20383;-61
2023/09/22 02:11:47;;;;;;;28.13;23.67;;;;;;;;;;5063865;28;20032;-61
2023/09/22 02:14:12;;;;;;;30.77;22.83;;;;;;;;;;5071842;28;20425;-61
2023/09/22 02:16:37;;;;;;;27.70;22.45;;;;;;;;;;5069557;28;20086;-61
2023/09/22 02:19:02;;;;;;;25.63;20.55;;;;;;;;;;5071889;28;20021;-62
2023/09/22 02:21:28;;;;;;;23.30;20.52;;;;;;;;;;5064792;28;20369;-62
2023/09/22 02:23:53;;;;;;;24.90;19.27;;;;;;;;;;5063608;28;20104;-62
2023/09/22 02:26:18;;;;;;;21.25;18.02;;;;;;;;;;5068277;28;20616;-60
2023/09/22 02:28:45;;;;;;;21.43;18.37;;;;;;;;;;5071331;28;20056;-60
2023/09/22 02:31:10;;;;;;;21.42;17.45;;;;;;;;;;5066594;28;21021;-61
2023/09/22 02:33:36;;;;;;;22.40;18.73;;;;;;;;;;5049789;28;20049;-61
2023/09/22 02:36:03;;;;;;;20.83;18.50;;;;;;;;;;5058000;28;20071;-61
2023/09/22 02:38:28;;;;;;;23.60;19.05;;;;;;;;;;5070756;28;20035;-61
2023/09/22 02:40:53;;;;;;;18.43;16.40;;;;;;;;;;5069448;28;20037;-61
2023/09/22 02:43:19;;;;;;;19.80;16.57;;;;;;;;;;5071623;28;20353;-61
2023/09/22 02:45:44;;;;;;;22.73;19.20;;;;;;;;;;5069149;28;20043;-61
2023/09/22 02:48:09;;;;;;;23.00;16.97;;;;;;;;;;5071228;28;20025;-62
2023/09/22 02:50:34;;;;;;;18.15;15.48;;;;;;;;;;5069528;28;20045;-70
2023/09/22 02:53:04;;;;;;;22.67;16.58;;;;;;;;;;5052668;28;20056;-62
2023/09/22 02:55:29;;;;;;;19.30;15.10;;;;;;;;;;5053304;28;20028;-62
2023/09/22 02:57:55;;;;;;;22.00;15.55;;;;;;;;;;5070608;28;20059;-64
2023/09/22 03:00:20;;;;;;;21.45;15.30;;;;;;;;;;5069017;28;20471;-62
2023/09/22 03:02:48;;;;;;;21.65;16.33;;;;;;;;;;5070258;28;20028;-62
2023/09/22 03:05:16;;;;;;;18.13;15.82;;;;;;;;;;5068979;28;20048;-61
2023/09/22 03:07:41;;;;;;;21.88;17.30;;;;;;;;;;5070265;28;20025;-60
2023/09/22 03:10:07;;;;;;;22.17;15.23;;;;;;;;;;5069385;28;20031;-61
2023/09/22 03:12:33;;;;;;;19.05;15.82;;;;;;;;;;5070591;28;20382;-60
2023/09/22 03:14:58;;;;;;;20.50;16.88;;;;;;;;;;5070411;28;20024;-62
2023/09/22 03:17:24;;;;;;;20.50;15.57;;;;;;;;;;5069075;28;20119;-62
2023/09/22 03:19:49;;;;;;;19.03;15.27;;;;;;;;;;5070700;28;20020;-62
2023/09/22 03:22:14;;;;;;;19.53;15.33;;;;;;;;;;5068674;28;20174;-62
2023/09/22 03:24:39;;;;;;;18.73;14.32;;;;;;;;;;5070119;28;20028;-62
2023/09/22 03:27:04;;;;;;;20.92;16.83;;;;;;;;;;5068914;28;20051;-69
2023/09/22 03:29:29;;;;;;;23.13;15.95;;;;;;;;;;5069396;28;20027;-62
2023/09/22 03:31:54;;;;;;;26.70;16.70;;;;;;;;;;5063816;28;20041;-62
2023/09/22 03:34:21;;;;;;;21.50;15.98;;;;;;;;;;5070013;28;20086;-62
2023/09/22 03:36:49;;;;;;;25.10;14.52;;;;;;;;;;5066754;28;20535;-62
2023/09/22 03:39:14;;;;;;;21.73;14.60;;;;;;;;;;5070193;28;20016;-62
2023/09/22 03:41:42;;;;;;;19.80;14.47;;;;;;;;;;5067271;28;20032;-62
2023/09/22 03:44:07;;;;;;;18.10;14.67;;;;;;;;;;5069643;28;20427;-62
2023/09/22 03:46:32;;;;;;;27.33;17.30;;;;;;;;;;5067588;28;20040;-62
2023/09/22 03:48:57;;;;;;;17.25;13.18;;;;;;;;;;5050495;28;20025;-62
2023/09/22 03:51:22;;;;;;;25.53;12.43;;;;;;;;;;5059539;28;20048;-62
2023/09/22 03:53:48;;;;;;;23.30;14.40;;;;;;;;;;5070325;28;20476;-62
2023/09/22 03:56:13;;;;;;;18.43;13.67;;;;;;;;;;5068328;28;20407;-63
2023/09/22 03:58:39;;;;;;;25.55;16.10;;;;;;;;;;5069236;28;20023;-62
2023/09/22 04:01:11;;;;;;;22.02;14.23;;;;;;;;;;5068656;28;20047;-62
2023/09/22 04:03:36;;;;;;;24.65;14.07;;;;;;;;;;5069879;28;20033;-62
2023/09/22 04:06:02;;;;;;;24.27;14.13;;;;;;;;;;5067607;28;20090;-62
2023/09/22 04:08:27;;;;;;;22.38;15.27;;;;;;;;;;5070340;28;20028;-62
2023/09/22 04:10:52;;;;;;;27.70;15.45;;;;;;;;;;5060075;28;20127;-62
2023/09/22 04:13:18;;;;;;;23.08;17.08;;;;;;;;;;5070183;28;20025;-62
2023/09/22 04:15:43;;;;;;;24.10;16.42;;;;;;;;;;5067874;28;20072;-62
2023/09/22 04:18:08;;;;;;;30.50;16.07;;;;;;;;;;5069941;28;20079;-62
2023/09/22 04:20:37;;;;;;;25.67;15.47;;;;;;;;;;5067689;28;20041;-63
2023/09/22 04:23:04;;;;;;;;;;;;;;;;;;5069982;28;20559;-62
2023/09/22 04:25:29;;;;;;;28.13;16.83;;;;;;;;;;5067888;28;19962;-61
2023/09/22 04:28:07;;;;;;;27.87;16.97;;;;;;;;;;5069807;28;20025;-61
2023/09/22 04:30:32;;;;;;;35.13;18.10;;;;;;;;;;5068385;28;20458;-61
2023/09/22 04:32:57;;;;;;;25.67;17.90;;;;;;;;;;5069859;28;20507;-61
2023/09/22 04:35:23;;;;;;;27.70;17.65;;;;;;;;;;5069531;28;20085;-61
2023/09/22 04:37:48;;;;;;;31.52;18.17;;;;;;;;;;5057065;28;20036;-74
2023/09/22 04:40:29;;;;;;;27.92;18.42;;;;;;;;;;5048256;28;20105;-61
2023/09/22 04:42:54;;;;;;;28.70;18.60;;;;;;;;;;5061067;28;20086;-61
2023/09/22 04:45:21;;;;;;;29.35;17.02;;;;;;;;;;5067231;28;20021;-63
2023/09/22 04:47:47;;;;;;;29.98;17.58;;;;;;;;;;5043507;28;20380;-61
2023/09/22 04:50:15;;;;;;;32.13;18.55;;;;;;;;;;5051749;28;20017;-60
2023/09/22 04:52:40;;;;;;;27.30;18.98;;;;;;;;;;5057610;28;20036;-60
2023/09/22 04:55:06;;;;;;;28.83;17.52;;;;;;;;;;5053346;28;20021;-60
2023/09/22 04:57:31;;;;;;;27.20;18.25;;;;;;;;;;5052126;28;20641;-60
2023/09/22 04:59:56;;;;;;;27.10;17.57;;;;;;;;;;5071059;28;20052;-60
2023/09/22 05:02:21;;;;;;;24.17;16.08;;;;;;;;;;5071418;28;20458;-60
2023/09/22 05:04:47;;;;;;;27.83;16.65;;;;;;;;;;5071740;28;20016;-60
2023/09/22 05:07:13;;;;;;;25.33;17.60;;;;;;;;;;5069121;28;20083;-60
2023/09/22 05:09:39;;;;;;;27.67;18.30;;;;;;;;;;5070193;28;20048;-60
2023/09/22 05:12:04;;;;;;;33.33;17.67;;;;;;;;;;5071069;28;20040;-60
2023/09/22 05:14:29;;;;;;;25.50;16.33;;;;;;;;;;5070637;28;20031;-60
2023/09/22 05:16:55;;;;;;;24.73;17.30;;;;;;;;;;5070683;28;20124;-60
2023/09/22 05:19:20;;;;;;;32.85;17.85;;;;;;;;;;5070922;28;20439;-60
2023/09/22 05:21:45;;;;;;;25.43;15.60;;;;;;;;;;5059097;28;20029;-60
2023/09/22 05:24:11;;;;;;;29.83;16.25;;;;;;;;;;5071677;28;20019;-60
2023/09/22 05:26:37;;;;;;;29.50;15.73;;;;;;;;;;5066933;28;20414;-59
2023/09/22 05:29:03;;;;;;;19.07;13.40;;;;;;;;;;5070172;28;20025;-60
2023/09/22 05:31:28;;;;;;;25.92;16.23;;;;;;;;;;5070494;28;21167;-59
2023/09/22 05:33:53;;;;;;;17.60;13.55;;;;;;;;;;5072007;28;20057;-59
2023/09/22 05:36:18;;;;;;;27.73;13.45;;;;;;;;;;5070243;28;20455;-61
2023/09/22 05:38:43;;;;;;;26.63;15.53;;;;;;;;;;5046347;28;20068;-59
2023/09/22 05:41:09;;;;;;;18.58;13.30;;;;;;;;;;5047631;28;20439;-59
2023/09/22 05:43:34;;;;;;;16.63;12.82;;;;;;;;;;5071393;28;20099;-59
2023/09/22 05:45:59;;;;;;;16.50;11.57;;;;;;;;;;5069640;28;20012;-59
2023/09/22 05:48:24;;;;;;;18.17;12.02;;;;;;;;;;5070497;28;20444;-65
2023/09/22 05:51:00;;;;;;;15.65;11.30;;;;;;;;;;5070860;28;20021;-60
2023/09/22 05:53:26;;;;;;;15.50;11.07;;;;;;;;;;5048742;28;20474;-59
2023/09/22 05:56:08;;;;;;;14.55;9.93;;;;;;;;;;5051051;28;20405;-60
2023/09/22 05:58:37;;;;;;;22.73;11.57;;;;;;;;;;5042836;28;20049;-60
2023/09/22 06:01:09;;;;;;;12.35;9.63;;;;;;;;;;5032327;28;20508;-60
2023/09/22 06:03:35;;;;;;;15.80;10.95;;;;;;;;;;5051299;28;20013;-60
2023/09/22 06:06:21;;;;;;;10.90;7.70;;;;;;;;;;5063910;28;20103;-61
2023/09/22 06:08:47;;;;;;;18.75;9.98;;;;;;;;;;5071491;28;20024;-61
2023/09/22 06:11:12;;;;;;;10.77;9.68;;;;;;;;;;5069189;28;20016;-59
2023/09/22 06:13:38;;;;;;;22.67;8.90;;;;;;;;;;5069196;28;20036;-58
2023/09/22 06:16:04;;;;;;;14.85;7.72;;;;;;;;;;5069493;28;20062;-58
2023/09/22 06:18:29;;;;;;;13.80;7.53;;;;;;;;;;5054732;28;20013;-59
2023/09/22 06:20:59;;;;;;;9.38;7.90;;;;;;;;;;5048173;28;20025;-57
2023/09/22 06:23:24;;;;;;;9.50;8.48;;;;;;;;;;5051324;28;20016;-58
2023/09/22 06:25:55;;;;;;;9.63;6.53;;;;;;;;;;5051308;28;21574;-58
2023/09/22 06:28:21;;;;;;;10.90;6.72;;;;;;;;;;5048497;28;20496;-63
2023/09/22 06:30:46;;;;;;;18.85;7.55;;;;;;;;;;5055615;28;20050;-58
2023/09/22 06:33:13;;;;;;;8.38;6.57;;;;;;;;;;5070480;28;20381;-58
2023/09/22 06:35:39;;;;;;;10.55;5.38;;;;;;;;;;5067195;28;20086;-58
2023/09/22 06:38:06;;;;;;;8.27;5.70;;;;;;;;;;5070169;28;20016;-60
2023/09/22 06:40:34;;;;;;;7.60;5.18;;;;;;;;;;5069060;28;20060;-58
2023/09/22 06:42:59;;;;;;;10.07;5.00;;;;;;;;;;5070496;28;20027;-58
2023/09/22 06:45:24;;;;;;;7.60;5.50;;;;;;;;;;5069320;28;20115;-58
2023/09/22 06:47:50;;;;;;;5.10;3.33;;;;;;;;;;5070655;28;20024;-58
2023/09/22 06:50:15;;;;;;;6.03;3.75;;;;;;;;;;5069184;28;20131;-57
2023/09/22 06:52:40;;;;;;;14.43;5.27;;;;;;;;;;5070588;28;20024;-58
2023/09/22 06:55:11;;;;;;;11.73;3.70;;;;;;;;;;5067422;28;20429;-59
2023/09/22 06:57:36;;;;;;;4.90;3.58;;;;;;;;;;5068343;28;20012;-59
2023/09/22 07:00:05;;;;;;;4.83;3.50;;;;;;;;;;5067598;28;20395;-58
2023/09/22 07:02:31;;;;;;;6.32;4.15;;;;;;;;;;5068652;28;20427;-58
2023/09/22 07:04:56;;;;;;;8.00;4.22;;;;;;;;;;5068333;28;20029;-57
2023/09/22 07:07:21;;;;;;;3.33;3.10;;;;;;;;;;5067536;28;20086;-58
2023/09/22 07:09:46;;;;;;;4.17;3.17;;;;;;;;;;5068666;28;20029;-58
2023/09/22 07:12:11;;;;;;;5.90;3.27;;;;;;;;;;5059920;28;20044;-59
2023/09/22 07:14:36;;;;;;;4.53;2.33;;;;;;;;;;5055738;28;20463;-58
2023/09/22 07:17:02;;;;;;;6.65;3.38;;;;;;;;;;5043955;28;20056;-58
2023/09/22 07:19:28;;;;;;;3.30;2.55;;;;;;;;;;5049652;28;20040;-58
2023/09/22 07:21:53;;;;;;;6.95;2.75;;;;;;;;;;5048084;28;20025;-58
2023/09/22 07:24:18;;;;;;;7.90;3.85;;;;;;;;;;5049370;28;20021;-58
2023/09/22 07:26:44;;;;;;;7.30;3.37;;;;;;;;;;5047450;28;20040;-57
2023/09/22 07:29:09;;;;;;;4.60;2.40;;;;;;;;;;5049385;28;20252;-58
2023/09/22 07:31:34;;;;;;;3.77;2.83;;;;;;;;;;5047743;28;20103;-58
2023/09/22 07:34:00;;;;;;;2.67;2.47;;;;;;;;;;5049555;28;20534;-58
2023/09/22 07:36:26;;;;;;;6.95;2.67;;;;;;;;;;5048044;28;20480;-58
2023/09/22 07:38:51;;;;;;;5.88;3.28;;;;;;;;;;5049737;28;20050;-58
2023/09/22 07:41:17;;;;;;;5.30;2.58;;;;;;;;;;5047993;28;20119;-58
2023/09/22 07:43:42;;;;;;;4.07;2.65;;;;;;;;;;5049898;28;20098;-58
2023/09/22 07:46:07;;;;;;;2.55;2.03;;;;;;;;;;5048737;28;20119;-64
2023/09/22 07:48:33;;;;;;;4.93;2.17;;;;;;;;;;5049468;28;20021;-58
2023/09/22 07:51:00;;;;;;;1.77;1.65;;;;;;;;;;5048454;28;20044;-57
2023/09/22 07:53:25;;;;;;;4.20;2.92;;;;;;;;;;5050020;28;20017;-57
2023/09/22 07:55:51;;;;;;;4.68;2.00;;;;;;;;;;5047796;28;20215;-59
2023/09/22 07:58:16;;;;;;;3.47;1.98;;;;;;;;;;5050292;28;20021;-58
2023/09/22 08:00:44;;;;;;;5.43;2.17;;;;;;;;;;5048320;28;20033;-58
2023/09/22 08:03:09;;;;;;;5.43;2.58;;;;;;;;;;5049853;28;20375;-58
2023/09/22 08:05:35;;;;;;;4.05;2.50;;;;;;;;;;5048030;28;20040;-58
2023/09/22 08:08:00;;;;;;;6.10;3.17;;;;;;;;;;5049766;28;20389;-58
2023/09/22 08:10:28;;;;;;;7.25;2.22;;;;;;;;;;5048039;28;20041;-57
2023/09/22 08:12:53;;;;;;;8.35;2.78;;;;;;;;;;5049719;28;20384;-58
2023/09/22 08:15:18;;;;;;;7.33;4.13;;;;;;;;;;5048269;28;20045;-57
2023/09/22 08:17:45;;;;;;;3.77;2.27;;;;;;;;;;5049468;28;20103;-57
2023/09/22 08:20:12;;;;;;;2.50;2.30;;;;;;;;;;5048173;28;20420;-60
2023/09/22 08:22:37;;;;;;;3.35;2.47;;;;;;;;;;5049446;28;20119;-58
2023/09/22 08:25:07;;;;;;;4.22;2.40;;;;;;;;;;5070034;28;20487;-58
2023/09/22 08:27:33;;;;;;;2.03;1.80;;;;;;;;;;5073047;28;20366;-57
2023/09/22 08:29:59;;;;;;;6.00;3.38;;;;;;;;;;5065497;28;20107;-57
2023/09/22 08:32:24;;;;;;;1.95;1.50;;;;;;;;;;5064494;28;20445;-58
2023/09/22 08:34:49;;;;;;;2.40;1.90;;;;;;;;;;5059345;28;20028;-58
2023/09/22 08:37:14;;;;;;;2.92;2.35;;;;;;;;;;5071866;28;20028;-58
2023/09/22 08:39:39;;;;;;;4.00;1.97;;;;;;;;;;5067833;28;20463;-58
2023/09/22 08:42:05;;;;;;;6.15;3.33;;;;;;;;;;5068113;28;20033;-58
2023/09/22 08:44:30;;;;;;;43.63;4.40;;;;;;;;;;5065686;28;20022;-58
2023/09/22 08:46:55;;;;;;;3.17;1.90;;;;;;;;;;5071121;28;20032;-58
2023/09/22 08:49:23;;;;;;;3.38;1.70;;;;;;;;;;5072908;28;20439;-58
2023/09/22 08:51:49;;;;;;;3.00;1.88;;;;;;;;;;5070816;28;20071;-58
2023/09/22 08:54:14;;;;;;;4.50;2.92;;;;;;;;;;5072727;28;20071;-58
2023/09/22 08:56:40;;;;;;;4.45;2.30;;;;;;;;;;5069953;28;20056;-60
2023/09/22 08:59:05;;;;;;;3.72;1.70;;;;;;;;;;5072112;28;20418;-58
2023/09/22 09:01:31;;;;;;;3.08;1.80;;;;;;;;;;5070590;28;20037;-58
2023/09/22 09:03:57;;;;;;;4.97;2.63;;;;;;;;;;5071282;28;20020;-58
2023/09/22 09:06:23;;;;;;;6.05;2.85;;;;;;;;;;5068486;28;20181;-57
2023/09/22 09:09:04;;;;;;;3.13;1.40;;;;;;;;;;5071515;28;20516;-58
2023/09/22 09:11:29;;;;;;;4.38;1.30;;;;;;;;;;5070488;28;20118;-58
2023/09/22 09:13:54;;;;;;;4.10;1.52;;;;;;;;;;5072259;28;20055;-58
2023/09/22 09:16:30;;;;;;;2.33;1.40;;;;;;;;;;5071251;28;20044;-59
2023/09/22 09:19:11;;;;;;;1.98;1.40;;;;;;;;;;5072141;28;20031;-58
2023/09/22 09:21:37;;;;;;;3.90;1.90;;;;;;;;;;5070978;28;20082;-58
2023/09/22 09:24:02;;;;;;;6.33;1.50;;;;;;;;;;5069141;28;20510;-58
2023/09/22 09:26:27;;;;;;;2.03;1.37;;;;;;;;;;5070985;28;20037;-58
2023/09/22 09:28:53;;;;;;;2.40;1.45;;;;;;;;;;5072354;28;20431;-58
2023/09/22 09:31:18;;;;;;;2.58;1.58;;;;;;;;;;5070967;28;20040;-58
2023/09/22 09:33:49;;;;;;;1.40;1.30;;;;;;;;;;5059311;28;20404;-58
2023/09/22 09:36:15;;;;;;;3.97;1.55;;;;;;;;;;5049571;28;20049;-58
2023/09/22 09:38:41;;;;;;;1.85;1.48;;;;;;;;;;5052116;28;20021;-59
2023/09/22 09:41:08;;;;;;;6.55;3.15;;;;;;;;;;5050286;28;20106;-58
2023/09/22 09:43:33;;;;;;;3.55;2.30;;;;;;;;;;5053843;28;20077;-58
2023/09/22 09:45:59;;;;;;;4.88;2.45;;;;;;;;;;5048139;28;20411;-59
2023/09/22 09:48:25;;;;;;;1.30;1.10;;;;;;;;;;5051855;28;20025;-58
2023/09/22 09:50:51;;;;;;;5.82;1.65;;;;;;;;;;5056865;28;20063;-58
2023/09/22 09:53:16;;;;;;;1.65;1.50;;;;;;;;;;5071986;28;20383;-58
2023/09/22 09:55:43;;;;;;;1.40;1.30;;;;;;;;;;5069966;28;20419;-58
2023/09/22 09:58:10;;;;;;;4.80;1.40;;;;;;;;;;5071925;28;20065;-58
2023/09/22 10:00:35;;;;;;;2.03;1.65;;;;;;;;;;5069773;28;20448;-58
2023/09/22 10:03:01;;;;;;;2.80;1.83;;;;;;;;;;5070814;28;20051;-58
2023/09/22 10:05:26;;;;;;;2.15;1.35;;;;;;;;;;5069168;28;20052;-58
2023/09/22 10:07:56;;;;;;;4.77;2.13;;;;;;;;;;5070692;28;20371;-58
2023/09/22 10:10:22;;;;;;;2.22;1.40;;;;;;;;;;5069564;28;20052;-59
2023/09/22 10:12:47;;;;;;;2.08;1.52;;;;;;;;;;5071396;28;20020;-58
2023/09/22 10:15:13;;;;;;;1.05;0.95;;;;;;;;;;5067972;28;20535;-70
2023/09/22 10:17:38;;;;;;;2.03;1.77;;;;;;;;;;5070406;28;20029;-58
2023/09/22 10:20:10;;;;;;;1.55;1.48;;;;;;;;;;5069787;28;20016;-59
2023/09/22 10:22:36;;;;;;;2.30;1.10;;;;;;;;;;5065966;28;20028;-56
2023/09/22 10:25:13;;;;;;;2.00;1.33;;;;;;;;;;5056578;28;20024;-55
2023/09/22 10:28:01;;;;;;;1.95;1.27;;;;;;;;;;5070630;28;20028;-58
2023/09/22 10:30:44;;;;;;;2.10;1.60;;;;;;;;;;5059769;28;20044;-58
2023/09/22 10:33:15;;;;;;;3.13;2.15;;;;;;;;;;5070629;28;20056;-58
2023/09/22 10:35:40;;;;;;;1.30;1.20;;;;;;;;;;5070178;28;20028;-59
2023/09/22 10:38:05;;;;;;;2.15;1.85;;;;;;;;;;5058425;28;20028;-58
2023/09/22 10:40:31;;;;;;;2.95;1.40;;;;;;;;;;5070239;28;20025;-59
2023/09/22 10:43:01;;;;;;;3.13;1.30;;;;;;;;;;5054868;28;20041;-57
2023/09/22 10:45:28;;;;;;;3.08;1.67;;;;;;;;;;5049397;28;20067;-58
2023/09/22 10:47:54;;;;;;;1.95;1.40;;;;;;;;;;5063402;28;20043;-59
2023/09/22 10:50:21;;;;;;;2.35;2.22;;;;;;;;;;5070359;28;20472;-59
2023/09/22 10:52:54;;;;;;;1.60;1.10;;;;;;;;;;5068733;28;20066;-58
2023/09/22 10:55:23;;;;;;;1.48;1.30;;;;;;;;;;5069751;28;20434;-58
2023/09/22 10:57:48;;;;;;;1.42;1.27;;;;;;;;;;5068817;28;20039;-59
2023/09/22 11:00:18;;;;;;;3.35;1.80;;;;;;;;;;5070312;28;20099;-58
2023/09/22 11:02:43;;;;;;;4.38;2.25;;;;;;;;;;5068775;28;20032;-59
2023/09/22 11:05:10;;;;;;;1.77;1.40;;;;;;;;;;5071271;28;20026;-58
2023/09/22 11:07:36;;;;;;;4.63;1.63;;;;;;;;;;5058366;28;20048;-59
2023/09/22 11:10:02;;;;;;;2.83;1.10;;;;;;;;;;5052650;28;20029;-59
2023/09/22 11:12:28;;;;;;;3.10;1.20;;;;;;;;;;5062063;28;20041;-59
2023/09/22 11:14:53;;;;;;;9.38;1.75;;;;;;;;;;5049331;28;20751;-58
2023/09/22 11:17:19;;;;;;;1.15;1.10;;;;;;;;;;5060406;28;20041;-58
2023/09/22 11:19:49;;;;;;;2.80;1.60;;;;;;;;;;5068475;28;20119;-58
2023/09/22 11:22:14;;;;;;;5.80;4.32;;;;;;;;;;5049113;28;20029;-58
2023/09/22 11:24:39;;;;;;;2.88;2.08;;;;;;;;;;5048526;28;20434;-58
2023/09/22 11:27:05;;;;;;;2.00;1.77;;;;;;;;;;5058523;28;20043;-58
2023/09/22 11:29:31;;;;;;;1.50;1.35;;;;;;;;;;5070816;28;20461;-58
2023/09/22 11:31:57;;;;;;;3.38;2.08;;;;;;;;;;5068079;28;20403;-58
2023/09/22 11:34:23;;;;;;;1.58;1.20;;;;;;;;;;5069852;28;20048;-58
2023/09/22 11:36:51;;;;;;;3.40;1.73;;;;;;;;;;5065393;28;20395;-58
2023/09/22 11:39:26;;;;;;;2.00;1.85;;;;;;;;;;5062531;28;20099;-58
2023/09/22 11:41:51;;;;;;;1.75;1.15;;;;;;;;;;5068203;28;20042;-58
2023/09/22 11:44:16;;;;;;;2.03;1.30;;;;;;;;;;5070357;28;20111;-58
2023/09/22 11:46:45;;;;;;;5.03;2.30;;;;;;;;;;5067573;28;20043;-58
2023/09/22 11:49:12;;;;;;;1.80;1.35;;;;;;;;;;5059438;28;21001;-58
2023/09/22 11:51:39;;;;;;;5.80;1.48;;;;;;;;;;5061024;28;20055;-58
2023/09/22 11:54:05;;;;;;;1.38;1.25;;;;;;;;;;5069950;28;20031;-58
2023/09/22 11:56:30;;;;;;;2.88;2.22;;;;;;;;;;5068698;28;20037;-59
2023/09/22 11:59:08;;;;;;;3.25;1.30;;;;;;;;;;5069134;28;20032;-58
2023/09/22 12:01:34;;;;;;;1.75;1.63;;;;;;;;;;5059890;28;20123;-58
2023/09/22 12:04:00;;;;;;;1.92;1.45;;;;;;;;;;5070107;28;20450;-58
2023/09/22 12:06:25;;;;;;;9.83;1.57;;;;;;;;;;5059832;28;20064;-58
2023/09/22 12:08:51;;;;;;;1.30;1.20;;;;;;;;;;5029658;28;20470;-58
2023/09/22 12:11:16;;;;;;;3.20;1.30;;;;;;;;;;5039618;28;20550;-58
2023/09/22 12:13:42;;;;;;;2.53;1.50;;;;;;;;;;5048327;28;20097;-58
2023/09/22 12:16:08;;;;;;;2.42;1.13;;;;;;;;;;5057435;28;20108;-58
2023/09/22 12:18:33;;;;;;;2.27;1.20;;;;;;;;;;5055604;28;20468;-58
2023/09/22 12:20:58;;;;;;;1.40;1.30;;;;;;;;;;5048451;28;20135;-58
2023/09/22 12:23:23;;;;;;;1.85;1.48;;;;;;;;;;5049046;28;20017;-65
2023/09/22 12:25:52;;;;;;;1.73;1.40;;;;;;;;;;5047958;28;20432;-58
2023/09/22 12:28:17;;;;;;;;;;;;;;;;;;5034042;28;20455;-58
2023/09/22 12:30:42;;;;;;;3.63;1.50;;;;;;;;;;5052501;28;19917;-58
2023/09/22 12:33:07;;;;;;;5.60;0.90;;;;;;;;;;5069629;28;20045;-59
2023/09/22 12:35:32;;;;;;;2.13;1.23;;;;;;;;;;5067247;28;20105;-58
2023/09/22 12:37:57;;;;;;;1.30;1.20;;;;;;;;;;5069505;28;20066;-59
2023/09/22 12:40:22;;;;;;;2.95;1.27;;;;;;;;;;5067824;28;20985;-59
2023/09/22 12:42:48;;;;;;;2.25;1.10;;;;;;;;;;5068919;28;20038;-59
2023/09/22 12:45:13;;;;;;;2.00;1.00;;;;;;;;;;5067531;28;20016;-59
2023/09/22 12:47:38;;;;;;;3.37;1.23;;;;;;;;;;5069806;28;20452;-59
2023/09/22 12:50:08;;;;;;;3.15;1.17;;;;;;;;;;5066889;28;20439;-65
2023/09/22 12:52:33;;;;;;;1.15;0.98;;;;;;;;;;5067327;28;20024;-58
2023/09/22 12:54:58;;;;;;;3.70;2.07;;;;;;;;;;5069246;28;20170;-59
2023/09/22 12:57:24;;;;;;;1.30;0.88;;;;;;;;;;5066637;28;20494;-66
2023/09/22 12:59:49;;;;;;;1.05;0.95;;;;;;;;;;5068859;28;20077;-58
2023/09/22 13:02:14;;;;;;;1.60;1.15;;;;;;;;;;5067626;28;20503;-57
2023/09/22 13:04:39;;;;;;;2.55;1.40;;;;;;;;;;5068616;28;20043;-58
2023/09/22 13:07:04;;;;;;;2.35;1.80;;;;;;;;;;5067341;28;20063;-58
2023/09/22 13:09:31;;;;;;;1.50;1.00;;;;;;;;;;5069475;28;20073;-58
2023/09/22 13:11:56;;;;;;;1.13;1.08;;;;;;;;;;5052638;28;20621;-58
2023/09/22 13:14:21;;;;;;;5.85;1.88;;;;;;;;;;5040324;28;20022;-59
2023/09/22 13:16:46;;;;;;;3.88;1.98;;;;;;;;;;5045256;28;20634;-60
2023/09/22 13:19:11;;;;;;;2.30;1.10;;;;;;;;;;5052630;28;20020;-59
2023/09/22 13:21:37;;;;;;;1.70;1.60;;;;;;;;;;5063152;28;20395;-59
2023/09/22 13:24:02;;;;;;;2.97;0.97;;;;;;;;;;5052240;28;20032;-58
2023/09/22 13:26:27;;;;;;;3.60;1.50;;;;;;;;;;5069499;28;20032;-59
2023/09/22 13:28:56;;;;;;;1.70;0.95;;;;;;;;;;5066187;28;20028;-59
2023/09/22 13:31:22;;;;;;;2.55;1.20;;;;;;;;;;5070418;28;20182;-69
2023/09/22 13:33:47;;;;;;;3.00;2.00;;;;;;;;;;5071350;28;20131;-59
2023/09/22 13:36:16;;;;;;;1.50;1.40;;;;;;;;;;5067501;28;20040;-58
2023/09/22 13:38:41;;;;;;;1.33;1.23;;;;;;;;;;5050708;28;20496;-59
2023/09/22 13:41:13;;;;;;;3.25;1.42;;;;;;;;;;5057714;28;20041;-59
2023/09/22 13:43:38;;;;;;;2.78;1.42;;;;;;;;;;5071641;28;20550;-59
2023/09/22 13:46:13;;;;;;;1.25;1.13;;;;;;;;;;5051989;28;20144;-59
2023/09/22 13:48:39;;;;;;;2.47;1.73;;;;;;;;;;5068094;28;20388;-59
2023/09/22 13:51:05;;;;;;;1.10;1.10;;;;;;;;;;5070800;28;20029;-59
2023/09/22 13:53:30;;;;;;;1.48;1.30;;;;;;;;;;5042169;28;20445;-59
2023/09/22 13:55:56;;;;;;;1.43;1.10;;;;;;;;;;5043536;28;20040;-59
2023/09/22 13:58:21;;;;;;;3.65;1.50;;;;;;;;;;5051745;28;20436;-59
2023/09/22 14:00:46;;;;;;;4.33;1.43;;;;;;;;;;5055847;28;20040;-59
2023/09/22 14:03:11;;;;;;;3.10;1.00;;;;;;;;;;5062240;28;20521;-59
2023/09/22 14:05:38;;;;;;;1.67;1.20;;;;;;;;;;5050095;28;20129;-59
2023/09/22 14:08:04;;;;;;;3.13;1.45;;;;;;;;;;5052152;28;20032;-59
2023/09/22 14:10:29;;;;;;;1.52;1.42;;;;;;;;;;5053760;28;20403;-59
2023/09/22 14:12:55;;;;;;;4.47;1.30;;;;;;;;;;5061601;28;20024;-59
2023/09/22 14:15:20;;;;;;;1.52;1.42;;;;;;;;;;5045409;28;20025;-59
2023/09/22 14:17:47;;;;;;;3.15;1.05;;;;;;;;;;5071374;28;20030;-59
2023/09/22 14:20:12;;;;;;;1.42;1.30;;;;;;;;;;5069977;28;20012;-59
2023/09/22 14:22:37;;;;;;;1.67;1.20;;;;;;;;;;5071423;28;20074;-59
2023/09/22 14:25:03;;;;;;;1.90;1.23;;;;;;;;;;5071347;28;20043;-58
2023/09/22 14:27:28;;;;;;;2.55;1.80;;;;;;;;;;5068030;28;20033;-59